Time;durP1;ratioP1;P1;durP2;ratioP2;P2;SDS_P1;SDS_P2;PMS_P1;PMS_P2;Temp;Humidity;BMP_temperature;BMP_pressure;BME280_temperature;BME280_humidity;BME280_pressure;Samples;Min_cycle;Max_cycle;Signal;HPM_P1;HPM_P2
2021/03/17 05:01:11;;;;;;;13.93;10.63;;;;;;;4.01;62.63;93151.08;834195;71;29733;-80
2021/03/17 05:16:25;;;;;;;12.20;10.75;;;;;;;4.07;61.82;93156.98;827765;71;32850;-80
2021/03/17 05:31:19;;;;;;;13.13;10.20;;;;;;;4.06;61.59;93153.62;833910;71;32808;-78
2021/03/17 05:46:08;;;;;;;15.18;11.53;;;;;;;4.15;61.38;93158.95;828160;71;29697;-79
2021/03/17 06:01:09;;;;;;;11.10;9.43;;;;;;;4.27;60.87;93162.42;828138;71;29786;-79
2021/03/17 06:16:21;;;;;;;16.27;9.60;;;;;;;4.37;60.46;93172.13;827359;71;31331;-78
2021/03/17 06:31:10;;;;;;;12.60;9.85;;;;;;;4.48;60.02;93183.17;828014;71;29542;-76
2021/03/17 06:46:15;;;;;;;14.38;9.83;;;;;;;4.68;60.00;93191.70;828006;71;30366;-77
2021/03/17 07:01:29;;;;;;;13.30;10.03;;;;;;;4.83;59.62;93194.08;828634;71;30207;-77
2021/03/17 07:16:10;;;;;;;13.22;9.83;;;;;;;4.96;59.31;93198.54;833906;71;30158;-75
2021/03/17 07:31:17;;;;;;;11.00;9.00;;;;;;;5.01;58.97;93194.57;828190;71;29777;-78
2021/03/17 07:46:09;;;;;;;11.40;8.75;;;;;;;4.90;59.24;93191.11;828237;71;29510;-74
2021/03/17 08:01:09;;;;;;;9.40;8.08;;;;;;;5.01;59.21;93208.11;828098;71;29309;-78
2021/03/17 08:16:21;;;;;;;12.45;9.03;;;;;;;5.18;59.71;93206.27;828071;71;32745;-75
2021/03/17 08:31:09;;;;;;;10.50;7.75;;;;;;;5.32;60.20;93212.27;833804;71;29244;-77
2021/03/17 08:46:18;;;;;;;8.70;7.65;;;;;;;5.56;60.67;93213.95;828140;71;29125;-76
2021/03/17 09:01:34;;;;;;;7.35;6.65;;;;;;;5.61;61.00;93221.65;827922;71;29354;-77
2021/03/17 09:16:10;;;;;;;8.13;6.83;;;;;;;5.53;61.39;93216.58;833923;71;29229;-77
2021/03/17 09:31:11;;;;;;;9.25;7.62;;;;;;;5.40;60.49;93217.34;835352;71;28512;-78
2021/03/17 10:01:12;;;;;;;10.18;8.08;;;;;;;5.28;62.51;93233.94;828859;71;28943;-78
2021/03/17 10:16:16;;;;;;;10.48;8.65;;;;;;;5.38;62.61;93246.77;835183;71;31716;-76
2021/03/17 10:31:12;;;;;;;9.88;8.35;;;;;;;5.38;63.61;93255.87;834199;71;30861;-77
2021/03/17 10:46:08;;;;;;;9.25;7.50;;;;;;;5.47;63.99;93259.88;828207;71;28798;-77
2021/03/17 11:01:10;;;;;;;9.85;8.78;;;;;;;5.48;64.46;93259.59;828615;71;29156;-76
2021/03/17 11:16:32;;;;;;;10.82;8.63;;;;;;;5.42;63.25;93255.55;818355;70;31269;-78
2021/03/17 11:31:17;;;;;;;10.05;9.03;;;;;;;5.59;63.14;93258.35;828091;71;32351;-77
2021/03/17 11:46:10;;;;;;;10.00;8.00;;;;;;;5.37;64.97;93260.81;834628;71;29294;-80
2021/03/17 12:01:13;;;;;;;10.95;8.33;;;;;;;5.48;66.59;93263.50;828068;71;31039;-77
2021/03/17 12:16:10;;;;;;;10.60;8.50;;;;;;;5.50;67.08;93267.12;817511;71;29261;-79
2021/03/17 12:31:10;;;;;;;10.18;8.85;;;;;;;5.19;67.68;93272.79;830163;71;29024;-75
2021/03/17 12:46:19;;;;;;;10.05;9.05;;;;;;;5.03;68.08;93291.77;833813;71;31752;-80
2021/03/17 13:01:10;;;;;;;11.65;9.40;;;;;;;7.65;70.88;93293.27;827909;71;30814;-77
2021/03/17 13:16:20;;;;;;;12.15;9.73;;;;;;;6.18;66.92;93304.73;827222;71;33257;-76
2021/03/17 13:31:09;;;;;;;11.75;9.63;;;;;;;5.69;68.21;93309.99;833857;71;30511;-77
2021/03/17 13:46:15;;;;;;;12.47;9.60;;;;;;;5.37;69.18;93312.83;835160;71;32795;-78
2021/03/17 14:01:15;;;;;;;10.60;8.90;;;;;;;5.19;69.66;93328.19;827867;71;32673;-77
2021/03/17 14:16:09;;;;;;;11.28;9.65;;;;;;;5.01;69.73;93332.87;833987;71;30351;-77
2021/03/17 14:31:14;;;;;;;10.55;9.30;;;;;;;4.95;70.29;93340.49;827548;71;32708;-77
2021/03/17 14:46:10;;;;;;;12.65;10.32;;;;;;;4.84;71.78;93341.66;828237;71;28352;-76
2021/03/17 15:01:32;;;;;;;10.85;8.45;;;;;;;4.60;72.46;93362.74;833675;71;30262;-79
2021/03/17 15:16:17;;;;;;;11.30;9.23;;;;;;;4.44;73.84;93372.27;828968;71;32703;-78
2021/03/17 15:31:16;;;;;;;10.50;9.23;;;;;;;4.23;74.22;93383.40;833796;71;33275;-76
2021/03/17 15:46:15;;;;;;;9.40;8.33;;;;;;;4.03;74.54;93386.43;827201;71;32761;-77
2021/03/17 16:01:28;;;;;;;11.50;9.40;;;;;;;3.97;75.42;93392.21;824123;71;33279;-76
2021/03/17 16:16:09;;;;;;;12.58;8.88;;;;;;;;;;824026;71;28761;-77
